Time;durP1;ratioP1;P1;durP2;ratioP2;P2;SDS_P1;SDS_P2;PMS_P1;PMS_P2;Temp;Humidity;BMP_temperature;BMP_pressure;BME280_temperature;BME280_humidity;BME280_pressure;Samples;Min_cycle;Max_cycle;Signal;HPM_P1;HPM_P2
2021/03/12 00:00:50;;;;;;;7.27;1.30;;;8.00;73.60;;;;;;5033348;28;20034;-75
2021/03/12 00:03:20;;;;;;;8.87;1.60;;;8.00;73.70;;;;;;5032214;28;20067;-74
2021/03/12 00:05:52;;;;;;;7.77;2.03;;;8.00;74.00;;;;;;5015678;28;20045;-74
2021/03/12 00:08:23;;;;;;;9.03;1.60;;;8.00;74.20;;;;;;5014342;28;20038;-76
2021/03/12 00:10:49;;;;;;;9.57;1.83;;;8.00;74.10;;;;;;5032885;28;20037;-74
2021/03/12 00:13:15;;;;;;;7.70;1.80;;;8.00;74.30;;;;;;4996514;28;20445;-75
2021/03/12 00:15:40;;;;;;;12.37;1.87;;;7.90;74.50;;;;;;5015436;28;20029;-74
2021/03/12 00:18:06;;;;;;;7.80;1.53;;;7.90;74.60;;;;;;4997613;28;20041;-75
2021/03/12 00:20:35;;;;;;;12.03;1.57;;;7.90;74.50;;;;;;4998483;28;20083;-74
2021/03/12 00:23:01;;;;;;;10.50;1.57;;;7.90;74.40;;;;;;5014337;28;20040;-78
2021/03/12 00:25:47;;;;;;;12.30;2.67;;;8.00;74.20;;;;;;5014341;28;20151;-73
2021/03/12 00:28:15;;;;;;;8.40;1.00;;;7.90;74.60;;;;;;5014142;28;20053;-73
2021/03/12 00:30:41;;;;;;;8.97;2.03;;;7.90;74.50;;;;;;5013709;28;20041;-74
2021/03/12 00:33:08;;;;;;;8.50;1.83;;;7.90;74.20;;;;;;5031541;28;20045;-74
2021/03/12 00:35:40;;;;;;;12.77;2.87;;;7.90;74.20;;;;;;5015472;28;20148;-73
2021/03/12 00:38:06;;;;;;;7.60;1.33;;;8.00;73.90;;;;;;5013965;28;20109;-74
2021/03/12 00:40:59;;;;;;;6.40;1.63;;;7.90;73.60;;;;;;5014619;28;20187;-73
2021/03/12 00:43:25;;;;;;;8.93;2.00;;;7.90;73.40;;;;;;5012337;28;20045;-73
2021/03/12 00:46:03;;;;;;;11.10;1.80;;;7.90;73.40;;;;;;5012681;28;20068;-74
2021/03/12 00:48:29;;;;;;;6.70;1.70;;;7.90;73.80;;;;;;5006430;28;20025;-74
2021/03/12 00:50:55;;;;;;;8.67;1.97;;;7.90;74.00;;;;;;5014328;28;20034;-75
2021/03/12 00:53:22;;;;;;;8.77;1.67;;;7.90;74.00;;;;;;4997113;28;20628;-75
2021/03/12 00:55:48;;;;;;;8.67;1.50;;;7.90;73.70;;;;;;5005044;28;20099;-75
2021/03/12 00:58:14;;;;;;;8.20;1.67;;;7.90;73.60;;;;;;4978335;28;20034;-77
2021/03/12 01:00:40;;;;;;;9.57;1.70;;;7.90;73.70;;;;;;5031977;28;20108;-75
2021/03/12 01:03:07;;;;;;;8.77;1.80;;;7.90;73.80;;;;;;5031458;28;20072;-75
2021/03/12 01:05:33;;;;;;;7.57;1.40;;;7.90;73.50;;;;;;5014232;28;20436;-74
2021/03/12 01:07:59;;;;;;;9.83;1.67;;;7.90;73.50;;;;;;5014786;28;20385;-74
2021/03/12 01:10:26;;;;;;;11.33;2.30;;;7.90;73.30;;;;;;4993497;28;20049;-74
2021/03/12 01:12:52;;;;;;;8.60;2.07;;;7.90;73.40;;;;;;4994540;28;20061;-74
2021/03/12 01:15:22;;;;;;;5.87;1.37;;;7.90;73.10;;;;;;5011144;28;20030;-75
2021/03/12 01:17:48;;;;;;;11.03;2.20;;;7.90;73.00;;;;;;5011197;28;20342;-74
2021/03/12 01:20:18;;;;;;;11.63;2.13;;;7.90;72.80;;;;;;5011046;28;20026;-77
2021/03/12 01:22:45;;;;;;;9.03;1.83;;;7.90;72.70;;;;;;5002924;28;20359;-74
2021/03/12 01:25:14;;;;;;;7.97;1.90;;;7.90;72.50;;;;;;5009349;28;20153;-75
2021/03/12 01:27:41;;;;;;;10.63;2.10;;;7.90;71.80;;;;;;5012623;28;20034;-76
2021/03/12 01:30:20;;;;;;;8.17;2.37;;;7.90;71.70;;;;;;5011175;28;20124;-80
2021/03/12 01:32:46;;;;;;;11.93;2.50;;;7.80;71.50;;;;;;5009976;28;20030;-75
2021/03/12 01:35:15;;;;;;;11.43;1.97;;;7.80;72.00;;;;;;5009624;28;20056;-76
2021/03/12 01:37:40;;;;;;;6.70;1.50;;;7.80;71.60;;;;;;5011875;28;20034;-77
2021/03/12 01:40:09;;;;;;;4.87;1.63;;;7.80;71.30;;;;;;5010884;28;20504;-81
2021/03/12 01:42:35;;;;;;;14.40;1.63;;;7.80;71.50;;;;;;5012085;28;20022;-76
2021/03/12 01:45:01;;;;;;;10.63;1.33;;;7.80;71.30;;;;;;4994247;28;20057;-76
2021/03/12 01:47:27;;;;;;;4.67;1.03;;;7.80;71.10;;;;;;5011370;28;20018;-76
2021/03/12 01:49:52;;;;;;;9.70;1.33;;;7.80;71.30;;;;;;4994158;28;20033;-76
2021/03/12 01:52:18;;;;;;;10.03;1.80;;;7.80;71.60;;;;;;5009210;28;20037;-76
2021/03/12 01:54:45;;;;;;;10.83;1.33;;;7.80;71.60;;;;;;5011714;28;20514;-76
2021/03/12 01:57:10;;;;;;;6.73;1.27;;;7.80;71.40;;;;;;5010349;28;20030;-77
2021/03/12 01:59:36;;;;;;;8.20;1.50;;;7.80;71.20;;;;;;4993494;28;20498;-77
2021/03/12 02:02:02;;;;;;;6.73;0.97;;;7.70;71.50;;;;;;5010157;28;20121;-77
2021/03/12 02:04:27;;;;;;;7.73;0.93;;;7.70;71.30;;;;;;4976732;28;20060;-77
2021/03/12 02:06:53;;;;;;;9.87;1.13;;;7.70;71.30;;;;;;4993636;28;20034;-76
2021/03/12 02:09:20;;;;;;;10.73;1.20;;;7.70;71.10;;;;;;4993122;28;20065;-78
2021/03/12 02:11:57;;;;;;;11.63;1.30;;;7.80;71.00;;;;;;5009869;28;20109;-77
2021/03/12 02:15:02;;;;;;;8.00;1.20;;;7.70;70.90;;;;;;5009385;28;20038;-78
2021/03/12 02:17:32;;;;;;;7.67;1.00;;;7.80;71.10;;;;;;4933036;29;20252;-77
2021/03/12 02:20:44;;;;;;;11.90;1.70;;;7.80;71.10;;;;;;4950474;29;20097;-77
2021/03/12 02:23:19;;;;;;;8.80;1.20;;;7.80;71.10;;;;;;4941881;29;20078;-81
2021/03/12 02:25:51;;;;;;;6.50;1.37;;;7.70;71.10;;;;;;4950605;29;20031;-77
2021/03/12 02:28:18;;;;;;;10.57;1.30;;;7.70;71.20;;;;;;4983498;28;20137;-77
2021/03/12 02:30:44;;;;;;;8.37;1.10;;;7.70;71.30;;;;;;5005133;28;20038;-76
2021/03/12 02:33:11;;;;;;;12.37;1.57;;;7.70;71.60;;;;;;5009856;28;20030;-80
2021/03/12 02:35:38;;;;;;;10.97;1.73;;;7.70;71.80;;;;;;5009794;28;20037;-77
2021/03/12 02:38:05;;;;;;;11.27;1.20;;;7.70;71.90;;;;;;5009822;28;20125;-77
2021/03/12 02:40:32;;;;;;;9.37;1.50;;;7.70;71.90;;;;;;5009118;28;20067;-77
2021/03/12 02:42:58;;;;;;;10.13;1.33;;;7.70;72.10;;;;;;4977090;28;20030;-76
2021/03/12 02:45:24;;;;;;;12.90;1.30;;;7.70;72.20;;;;;;5008503;28;20037;-79
2021/03/12 02:47:50;;;;;;;12.53;1.50;;;7.70;72.00;;;;;;5010583;28;20026;-76
2021/03/12 02:50:17;;;;;;;8.67;1.20;;;7.70;72.30;;;;;;4991901;28;20038;-75
2021/03/12 02:52:44;;;;;;;12.77;1.57;;;7.70;72.10;;;;;;4993171;28;20113;-74
2021/03/12 02:55:11;;;;;;;10.40;1.30;;;7.70;72.20;;;;;;5010651;28;20026;-80
2021/03/12 02:57:39;;;;;;;10.70;1.73;;;7.70;72.00;;;;;;5009934;28;20053;-74
2021/03/12 03:00:06;;;;;;;8.57;0.87;;;7.70;72.00;;;;;;5010100;28;20116;-76
2021/03/12 03:02:32;;;;;;;15.73;1.90;;;7.60;72.00;;;;;;5007900;28;20022;-76
2021/03/12 03:04:59;;;;;;;12.53;1.90;;;7.70;72.20;;;;;;5011325;28;20363;-76
2021/03/12 03:07:26;;;;;;;13.03;1.60;;;7.70;72.10;;;;;;5008040;28;20367;-75
2021/03/12 03:09:52;;;;;;;10.30;1.40;;;7.60;72.00;;;;;;5022007;28;20049;-76
2021/03/12 03:12:21;;;;;;;13.80;1.77;;;7.60;71.90;;;;;;5011076;28;20494;-76
2021/03/12 03:14:50;;;;;;;13.47;1.90;;;7.60;72.30;;;;;;5030731;28;20057;-76
2021/03/12 03:17:17;;;;;;;10.73;1.57;;;7.60;72.20;;;;;;5032492;28;20041;-76
2021/03/12 03:19:46;;;;;;;9.97;1.90;;;7.50;72.20;;;;;;5033974;28;20107;-78
2021/03/12 03:22:12;;;;;;;13.57;1.83;;;7.40;72.70;;;;;;5033711;28;20085;-78
2021/03/12 03:24:38;;;;;;;7.07;1.57;;;7.30;72.80;;;;;;5033980;28;20109;-77
2021/03/12 03:27:06;;;;;;;10.67;2.00;;;7.20;72.90;;;;;;4999897;28;20120;-76
2021/03/12 03:29:32;;;;;;;11.93;1.73;;;7.10;73.30;;;;;;5014711;28;20125;-78
2021/03/12 03:31:59;;;;;;;9.50;1.70;;;7.10;73.60;;;;;;5014991;28;20466;-78
2021/03/12 03:34:24;;;;;;;10.87;2.30;;;7.00;73.60;;;;;;4998514;28;20033;-77
2021/03/12 03:36:52;;;;;;;9.17;1.40;;;6.90;73.80;;;;;;5000391;28;20032;-77
2021/03/12 03:39:18;;;;;;;11.90;2.20;;;6.90;73.70;;;;;;5014660;28;20033;-78
2021/03/12 03:41:47;;;;;;;7.80;1.33;;;6.90;73.70;;;;;;5033493;28;20390;-78
2021/03/12 03:44:17;;;;;;;10.83;1.50;;;6.90;73.80;;;;;;5015976;28;20029;-80
2021/03/12 03:46:45;;;;;;;10.40;2.00;;;6.90;73.70;;;;;;5033644;28;20104;-77
2021/03/12 03:49:16;;;;;;;8.17;1.40;;;6.90;73.70;;;;;;4995962;28;20085;-76
2021/03/12 03:51:43;;;;;;;5.80;0.97;;;6.90;74.20;;;;;;5014269;28;20026;-79
2021/03/12 03:54:12;;;;;;;10.00;1.10;;;6.90;74.00;;;;;;4996218;28;20078;-77
2021/03/12 03:56:39;;;;;;;11.73;1.33;;;7.00;73.80;;;;;;5033471;28;20041;-78
2021/03/12 03:59:05;;;;;;;10.57;1.10;;;7.10;73.80;;;;;;5000474;28;20036;-78
2021/03/12 04:01:32;;;;;;;14.50;1.67;;;7.10;73.60;;;;;;5035226;28;20385;-78
2021/03/12 04:03:58;;;;;;;8.80;1.37;;;7.10;73.30;;;;;;5038888;28;20040;-77
2021/03/12 04:06:29;;;;;;;11.13;1.13;;;7.10;73.40;;;;;;5021123;28;20036;-77
2021/03/12 04:08:57;;;;;;;12.40;1.37;;;7.10;73.30;;;;;;5022396;28;20108;-77
2021/03/12 04:11:23;;;;;;;8.70;0.97;;;7.00;73.50;;;;;;5021237;28;20073;-77
2021/03/12 04:13:49;;;;;;;15.83;1.10;;;6.90;73.50;;;;;;5021798;28;20040;-77
2021/03/12 04:16:15;;;;;;;8.83;1.00;;;6.90;73.60;;;;;;5038724;28;20029;-80
2021/03/12 04:18:42;;;;;;;11.87;1.30;;;6.80;74.10;;;;;;5005881;28;20115;-77
2021/03/12 04:21:08;;;;;;;16.07;1.30;;;6.70;74.40;;;;;;5007295;28;20033;-77
2021/03/12 04:23:34;;;;;;;12.47;1.07;;;6.70;74.60;;;;;;5022714;28;20041;-76
2021/03/12 04:26:00;;;;;;;8.83;0.93;;;6.60;74.80;;;;;;5021842;28;20029;-77
2021/03/12 04:28:26;;;;;;;10.13;0.90;;;6.50;74.90;;;;;;5041477;28;20037;-76
2021/03/12 04:30:52;;;;;;;8.80;0.97;;;6.40;75.10;;;;;;5019861;28;20040;-74
2021/03/12 04:33:19;;;;;;;11.60;1.40;;;6.30;75.30;;;;;;5017337;28;20030;-79
2021/03/12 04:35:44;;;;;;;9.93;1.03;;;6.30;75.40;;;;;;4984986;28;20048;-74
2021/03/12 04:38:11;;;;;;;9.03;0.80;;;6.20;76.10;;;;;;5018206;28;20037;-76
2021/03/12 04:40:37;;;;;;;13.07;1.20;;;6.20;75.80;;;;;;5034531;28;20152;-75
2021/03/12 04:43:03;;;;;;;11.90;1.30;;;6.10;76.00;;;;;;4983618;28;20070;-75
2021/03/12 04:45:30;;;;;;;14.80;0.80;;;6.10;76.30;;;;;;5031257;28;20040;-74
2021/03/12 04:47:57;;;;;;;11.77;1.10;;;6.10;76.40;;;;;;4999018;28;20029;-74
2021/03/12 04:50:25;;;;;;;10.03;0.90;;;6.10;76.60;;;;;;5031939;28;20068;-74
2021/03/12 04:52:53;;;;;;;11.30;1.10;;;6.10;76.70;;;;;;5014444;28;20493;-74
2021/03/12 04:55:19;;;;;;;8.13;0.87;;;6.00;76.60;;;;;;4998454;28;20408;-78
2021/03/12 04:57:45;;;;;;;11.10;1.20;;;6.00;76.80;;;;;;4998268;28;20049;-74
2021/03/12 05:00:12;;;;;;;12.07;1.63;;;6.00;76.90;;;;;;5014788;28;20385;-75
2021/03/12 05:02:38;;;;;;;12.13;1.30;;;5.90;77.00;;;;;;5014314;28;20040;-75
2021/03/12 05:05:06;;;;;;;12.90;0.93;;;6.00;77.20;;;;;;4981763;28;20124;-77
2021/03/12 05:07:33;;;;;;;9.87;1.00;;;6.00;77.20;;;;;;5030542;28;20027;-76
2021/03/12 05:09:59;;;;;;;18.63;1.30;;;6.00;76.90;;;;;;5031512;28;20037;-76
2021/03/12 05:12:24;;;;;;;8.87;1.00;;;5.90;77.00;;;;;;5013942;28;20040;-75
2021/03/12 05:14:50;;;;;;;12.37;1.47;;;6.00;76.90;;;;;;5033871;28;20061;-76
2021/03/12 05:17:15;;;;;;;12.63;1.20;;;6.00;77.00;;;;;;5016767;28;20041;-77
2021/03/12 05:19:41;;;;;;;9.70;1.00;;;6.10;76.90;;;;;;5032944;28;20037;-75
2021/03/12 05:22:07;;;;;;;14.20;1.37;;;6.10;76.50;;;;;;4982476;28;20052;-75
2021/03/12 05:24:32;;;;;;;7.13;0.60;;;6.20;76.40;;;;;;4997556;28;20390;-76
2021/03/12 05:26:58;;;;;;;12.43;0.93;;;6.20;76.10;;;;;;4997471;28;20087;-76
2021/03/12 05:29:24;;;;;;;7.73;0.70;;;6.30;75.90;;;;;;5013409;28;20120;-79
2021/03/12 05:31:49;;;;;;;12.93;1.10;;;6.30;75.80;;;;;;4976331;28;20483;-77
2021/03/12 05:34:15;;;;;;;7.27;1.00;;;6.40;76.00;;;;;;5014229;28;20501;-78
2021/03/12 05:36:41;;;;;;;9.43;0.73;;;6.50;75.80;;;;;;4996777;28;20057;-78
2021/03/12 05:39:06;;;;;;;10.53;1.03;;;6.50;75.50;;;;;;4997236;28;20071;-77
2021/03/12 05:41:36;;;;;;;12.50;1.37;;;6.50;75.30;;;;;;5030369;28;20373;-79
2021/03/12 05:44:03;;;;;;;12.43;1.00;;;6.50;75.50;;;;;;5014149;28;20025;-77
2021/03/12 05:46:29;;;;;;;8.13;1.00;;;6.60;75.70;;;;;;5012994;28;20033;-75
2021/03/12 05:48:56;;;;;;;8.20;0.90;;;6.50;75.30;;;;;;5031688;28;20061;-79
2021/03/12 05:51:22;;;;;;;7.60;0.60;;;6.50;75.40;;;;;;4996979;28;20044;-78
2021/03/12 05:53:48;;;;;;;12.73;1.30;;;6.50;75.40;;;;;;5013482;28;20061;-75
2021/03/12 05:56:14;;;;;;;12.97;1.23;;;6.60;75.60;;;;;;5031231;28;20061;-75
2021/03/12 05:58:40;;;;;;;10.50;1.23;;;6.50;75.40;;;;;;5012811;28;20033;-75
2021/03/12 06:01:05;;;;;;;10.33;0.90;;;6.50;75.60;;;;;;5030341;28;20029;-75
2021/03/12 06:03:31;;;;;;;12.00;0.87;;;6.50;75.80;;;;;;4996693;28;20052;-74
2021/03/12 06:05:56;;;;;;;10.70;1.07;;;6.50;75.90;;;;;;4996790;28;20029;-74
2021/03/12 06:08:22;;;;;;;12.53;1.10;;;6.50;75.90;;;;;;5030578;28;20029;-74
2021/03/12 06:10:50;;;;;;;14.23;1.40;;;6.60;76.10;;;;;;5010568;28;20041;-73
2021/03/12 06:13:16;;;;;;;10.13;0.83;;;6.60;75.90;;;;;;5031671;28;20040;-73
2021/03/12 06:15:45;;;;;;;12.60;1.10;;;6.60;75.70;;;;;;5030616;28;20026;-73
2021/03/12 06:18:21;;;;;;;18.27;1.13;;;6.60;76.00;;;;;;4997838;28;20033;-73
2021/03/12 06:20:47;;;;;;;13.63;1.60;;;6.60;75.80;;;;;;5012300;28;20025;-75
2021/03/12 06:23:35;;;;;;;11.60;1.27;;;6.60;75.90;;;;;;5013649;28;20391;-75
2021/03/12 06:26:01;;;;;;;12.13;0.93;;;6.60;76.30;;;;;;5010867;28;20026;-75
2021/03/12 06:28:27;;;;;;;12.07;1.30;;;6.70;76.40;;;;;;5013218;28;20480;-78
2021/03/12 06:30:53;;;;;;;13.07;1.00;;;6.70;76.20;;;;;;5012566;28;20055;-75
2021/03/12 06:33:28;;;;;;;12.57;1.43;;;6.70;76.20;;;;;;5013782;28;20444;-75
2021/03/12 06:35:54;;;;;;;14.70;1.30;;;6.70;76.20;;;;;;5012885;28;20091;-76
2021/03/12 06:38:20;;;;;;;14.90;1.57;;;6.80;76.50;;;;;;5030890;28;20036;-74
2021/03/12 06:40:46;;;;;;;12.50;1.53;;;6.90;76.60;;;;;;4992676;28;20046;-74
2021/03/12 06:43:13;;;;;;;18.67;1.90;;;6.90;76.60;;;;;;5011819;28;20037;-75
2021/03/12 06:45:41;;;;;;;17.87;1.73;;;6.90;76.80;;;;;;5010788;28;20068;-75
2021/03/12 06:48:23;;;;;;;11.90;1.67;;;6.90;76.60;;;;;;5003376;28;20091;-76
2021/03/12 06:50:52;;;;;;;11.83;1.27;;;7.10;76.80;;;;;;5008786;28;20030;-76
2021/03/12 06:53:19;;;;;;;10.30;1.23;;;7.10;76.80;;;;;;4998072;28;20033;-76
2021/03/12 06:55:45;;;;;;;16.57;1.90;;;7.30;76.90;;;;;;4996711;28;20038;-76
2021/03/12 06:58:10;;;;;;;13.53;1.57;;;7.40;76.80;;;;;;4985407;28;20454;-75
2021/03/12 07:00:36;;;;;;;15.83;1.90;;;7.40;76.20;;;;;;4995158;28;20029;-76
2021/03/12 07:03:21;;;;;;;13.40;1.63;;;7.40;76.30;;;;;;4981089;28;20033;-76
2021/03/12 07:05:56;;;;;;;14.30;1.60;;;7.40;76.30;;;;;;5011173;28;20033;-74
2021/03/12 07:08:38;;;;;;;13.87;1.63;;;7.30;76.40;;;;;;5036992;28;20029;-75
2021/03/12 07:11:19;;;;;;;19.13;1.83;;;7.30;76.40;;;;;;5033043;28;20045;-76
2021/03/12 07:13:46;;;;;;;14.77;1.43;;;7.40;76.50;;;;;;5016318;28;20049;-76
2021/03/12 07:16:12;;;;;;;20.97;1.90;;;7.40;76.40;;;;;;5016751;28;20017;-76
2021/03/12 07:18:38;;;;;;;19.20;2.17;;;7.40;76.60;;;;;;4998744;28;20116;-77
2021/03/12 07:21:05;;;;;;;13.97;1.37;;;7.40;76.60;;;;;;4999998;28;20141;-78
2021/03/12 07:23:36;;;;;;;15.40;1.90;;;7.60;76.50;;;;;;5015473;28;20025;-76
2021/03/12 07:26:02;;;;;;;14.73;1.20;;;7.70;76.40;;;;;;5014100;28;20046;-76
2021/03/12 07:28:30;;;;;;;12.93;2.03;;;7.70;76.10;;;;;;4991258;28;20030;-75
2021/03/12 07:30:56;;;;;;;19.30;1.60;;;7.80;76.30;;;;;;5029948;28;20270;-76
2021/03/12 07:33:26;;;;;;;15.80;2.07;;;7.80;75.90;;;;;;5010312;28;20152;-75
2021/03/12 07:35:53;;;;;;;17.20;1.83;;;7.90;76.10;;;;;;5028391;28;20037;-75
2021/03/12 07:38:22;;;;;;;22.33;2.30;;;8.00;75.80;;;;;;5013689;28;20038;-75
2021/03/12 07:40:48;;;;;;;13.40;1.57;;;8.00;75.30;;;;;;5030329;28;20021;-76
2021/03/12 07:43:14;;;;;;;13.00;1.40;;;8.10;75.40;;;;;;5011726;28;20034;-73
2021/03/12 07:45:42;;;;;;;19.77;1.70;;;8.20;75.30;;;;;;5011501;28;20030;-79
2021/03/12 07:48:08;;;;;;;13.00;1.90;;;8.30;75.20;;;;;;5019443;28;20134;-76
2021/03/12 07:50:37;;;;;;;11.90;1.50;;;8.40;75.10;;;;;;4994517;28;20033;-73
2021/03/12 07:53:03;;;;;;;16.77;2.10;;;8.50;74.70;;;;;;5028281;28;20037;-76
2021/03/12 07:55:35;;;;;;;14.43;1.70;;;8.70;74.30;;;;;;5025574;28;20153;-74
2021/03/12 07:58:07;;;;;;;14.60;2.03;;;8.90;74.20;;;;;;5004137;28;20044;-75
2021/03/12 08:00:51;;;;;;;15.07;1.85;;;9.10;73.60;;;;;;5007167;28;20037;-73
2021/03/12 08:03:32;;;;;;;14.03;1.97;;;9.40;73.00;;;;;;4996710;28;20343;-73
2021/03/12 08:05:58;;;;;;;15.57;1.77;;;9.50;71.80;;;;;;5024676;28;20025;-75
2021/03/12 08:08:34;;;;;;;24.27;2.20;;;9.50;72.10;;;;;;5025185;28;20025;-77
2021/03/12 08:11:38;;;;;;;15.50;1.50;;;9.50;71.90;;;;;;5018680;28;20060;-74
2021/03/12 08:14:19;;;;;;;19.43;2.27;;;9.50;72.30;;;;;;5004132;28;20033;-75
2021/03/12 08:16:56;;;;;;;14.70;1.83;;;9.60;72.00;;;;;;5003210;28;20041;-75
2021/03/12 08:19:40;;;;;;;15.83;2.23;;;9.50;71.70;;;;;;5002197;28;20481;-75
2021/03/12 08:22:24;;;;;;;;;;;9.40;71.90;;;;;;5005422;28;20382;-76
2021/03/12 08:24:52;;;;;;;15.33;2.50;;;9.30;71.90;;;;;;5005845;28;19927;-74
2021/03/12 08:27:38;;;;;;;17.17;3.23;;;9.30;72.00;;;;;;4994567;28;20532;-74
2021/03/12 08:30:10;;;;;;;14.57;3.30;;;9.30;72.30;;;;;;5008784;28;20041;-74
2021/03/12 08:32:36;;;;;;;18.03;2.57;;;9.50;72.30;;;;;;5010156;28;20032;-75
2021/03/12 08:35:03;;;;;;;16.03;2.50;;;9.60;71.30;;;;;;5007148;28;20034;-74
2021/03/12 08:37:29;;;;;;;18.17;2.80;;;9.70;71.30;;;;;;5007590;28;20084;-74
2021/03/12 08:40:19;;;;;;;18.50;2.90;;;9.80;70.70;;;;;;5008544;28;20057;-76
2021/03/12 08:43:00;;;;;;;15.73;2.70;;;10.10;70.30;;;;;;5006093;28;20034;-75
2021/03/12 08:45:37;;;;;;;17.70;3.87;;;10.40;69.60;;;;;;5005832;28;20533;-77
2021/03/12 08:48:33;;;;;;;19.00;3.17;;;10.70;69.00;;;;;;5007552;28;20034;-74
2021/03/12 08:51:15;;;;;;;23.77;3.00;;;11.10;68.20;;;;;;4996151;28;20777;-76
2021/03/12 08:53:48;;;;;;;18.07;4.27;;;11.50;66.10;;;;;;5007424;28;20042;-80
2021/03/12 08:56:21;;;;;;;22.03;4.63;;;11.60;65.30;;;;;;5008883;28;20056;-74
2021/03/12 08:58:50;;;;;;;23.27;4.47;;;11.70;65.10;;;;;;5011599;28;20056;-73
2021/03/12 09:01:18;;;;;;;19.43;3.50;;;11.70;64.60;;;;;;5012399;28;20422;-72
2021/03/12 09:03:47;;;;;;;17.07;3.80;;;11.70;64.10;;;;;;5012041;28;20026;-80
2021/03/12 09:06:16;;;;;;;19.27;4.67;;;11.50;64.60;;;;;;5010596;28;20057;-73
2021/03/12 09:08:43;;;;;;;16.60;2.90;;;11.50;65.20;;;;;;5007640;28;20026;-78
2021/03/12 09:11:13;;;;;;;18.03;5.10;;;11.50;64.20;;;;;;5014291;28;20054;-72
2021/03/12 09:13:40;;;;;;;19.30;3.80;;;11.40;64.60;;;;;;5028304;28;20108;-72
2021/03/12 09:16:07;;;;;;;22.63;4.50;;;11.40;64.30;;;;;;5011259;28;20029;-72
2021/03/12 09:18:35;;;;;;;14.80;4.60;;;11.30;64.70;;;;;;5031112;28;20492;-73
2021/03/12 09:21:05;;;;;;;15.20;4.07;;;11.20;65.20;;;;;;5031249;28;20029;-74
2021/03/12 09:23:39;;;;;;;23.83;7.03;;;11.30;65.50;;;;;;5031886;28;20029;-74
2021/03/12 09:26:17;;;;;;;16.40;5.87;;;11.50;65.40;;;;;;5013613;28;20520;-74
2021/03/12 09:28:45;;;;;;;24.27;7.07;;;11.80;64.80;;;;;;5025270;28;20055;-78
2021/03/12 09:31:13;;;;;;;15.70;5.30;;;12.20;64.10;;;;;;5012871;28;20036;-74
2021/03/12 09:33:52;;;;;;;20.97;5.70;;;12.50;62.90;;;;;;5010940;28;20473;-72
2021/03/12 09:36:31;;;;;;;17.90;3.70;;;12.60;62.30;;;;;;5021697;28;20030;-72
2021/03/12 09:39:19;;;;;;;20.30;6.30;;;12.70;61.70;;;;;;5030566;28;20034;-72
2021/03/12 09:41:59;;;;;;;23.97;6.40;;;13.00;61.30;;;;;;5030657;28;20025;-78
2021/03/12 09:44:26;;;;;;;15.60;3.30;;;13.20;60.30;;;;;;5031096;28;20080;-72
2021/03/12 09:46:53;;;;;;;24.70;7.40;;;13.40;59.50;;;;;;5030876;28;20049;-75
2021/03/12 09:49:19;;;;;;;18.33;3.93;;;13.50;59.40;;;;;;5031644;28;20025;-73
2021/03/12 09:51:47;;;;;;;25.47;4.13;;;13.40;59.00;;;;;;5009655;28;20390;-72
2021/03/12 09:54:15;;;;;;;21.20;5.10;;;13.10;58.50;;;;;;5031164;28;20072;-72
2021/03/12 09:56:48;;;;;;;26.23;9.67;;;12.60;60.30;;;;;;5031558;28;20080;-73
2021/03/12 09:59:14;;;;;;;20.03;5.47;;;12.30;61.60;;;;;;5014217;28;20088;-73
2021/03/12 10:01:42;;;;;;;20.23;6.03;;;12.40;61.60;;;;;;5033748;28;20474;-73
2021/03/12 10:04:29;;;;;;;22.40;6.37;;;12.70;61.30;;;;;;5030589;28;20556;-76
2021/03/12 10:07:01;;;;;;;25.40;6.87;;;13.00;60.40;;;;;;5032152;28;20026;-76
2021/03/12 10:09:29;;;;;;;19.87;5.17;;;13.20;59.60;;;;;;5014284;28;20033;-74
2021/03/12 10:11:55;;;;;;;20.93;5.93;;;13.30;59.60;;;;;;5031558;28;20024;-75
2021/03/12 10:14:27;;;;;;;21.40;5.93;;;13.10;58.60;;;;;;5014529;28;20029;-76
2021/03/12 10:17:16;;;;;;;22.70;7.13;;;12.90;59.90;;;;;;5013708;28;20057;-78
2021/03/12 10:19:51;;;;;;;23.20;5.30;;;12.60;60.40;;;;;;5024098;28;20041;-75
2021/03/12 10:22:20;;;;;;;21.23;6.90;;;12.60;60.30;;;;;;5031453;28;20458;-75
2021/03/12 10:24:58;;;;;;;20.00;7.57;;;12.80;60.90;;;;;;5016448;28;20026;-77
2021/03/12 10:27:25;;;;;;;17.47;4.50;;;13.00;60.40;;;;;;5017419;28;20025;-74
2021/03/12 10:29:51;;;;;;;20.20;5.17;;;13.10;59.10;;;;;;5017347;28;20502;-81
2021/03/12 10:32:18;;;;;;;17.33;5.43;;;13.30;58.80;;;;;;4996367;28;20042;-75
2021/03/12 10:34:53;;;;;;;16.50;5.40;;;13.60;58.30;;;;;;5017583;28;20029;-74
2021/03/12 10:37:22;;;;;;;20.23;5.40;;;13.70;57.10;;;;;;5013169;28;20033;-78
2021/03/12 10:39:50;;;;;;;21.83;6.90;;;13.80;56.80;;;;;;5026768;28;20025;-74
2021/03/12 10:42:23;;;;;;;21.00;4.57;;;13.80;56.80;;;;;;5028456;28;20425;-73
2021/03/12 10:44:52;;;;;;;18.33;4.23;;;13.80;56.60;;;;;;5007021;28;20540;-74
2021/03/12 10:47:18;;;;;;;12.73;3.33;;;13.90;55.90;;;;;;5030253;28;20029;-74
2021/03/12 10:49:44;;;;;;;19.13;5.38;;;14.20;55.20;;;;;;5015820;28;20095;-74
2021/03/12 10:52:19;;;;;;;13.23;3.83;;;14.40;55.20;;;;;;5032877;28;20037;-73
2021/03/12 10:54:44;;;;;;;16.50;3.50;;;14.40;55.00;;;;;;5012821;28;20030;-74
2021/03/12 10:57:10;;;;;;;16.90;3.95;;;14.50;54.40;;;;;;4981824;28;20048;-76
2021/03/12 10:59:36;;;;;;;11.93;3.15;;;14.60;53.40;;;;;;5013318;28;20417;-75
2021/03/12 11:02:12;;;;;;;12.07;3.25;;;14.40;53.10;;;;;;5013207;28;20036;-73
2021/03/12 11:04:38;;;;;;;18.23;2.65;;;14.20;53.10;;;;;;5015489;28;20033;-73
2021/03/12 11:07:04;;;;;;;15.95;2.75;;;13.80;54.70;;;;;;5029514;28;20087;-74
2021/03/12 11:09:30;;;;;;;18.57;3.20;;;13.50;55.40;;;;;;5015365;28;20100;-74
2021/03/12 11:11:56;;;;;;;11.88;2.60;;;13.40;56.00;;;;;;5032884;28;20021;-80
2021/03/12 11:14:21;;;;;;;15.25;3.58;;;13.40;55.60;;;;;;4998889;28;20037;-73
2021/03/12 11:16:48;;;;;;;21.10;5.73;;;13.60;55.00;;;;;;5015939;28;20425;-73
2021/03/12 11:19:13;;;;;;;15.80;3.53;;;13.80;55.70;;;;;;5015360;28;20116;-73
2021/03/12 11:21:39;;;;;;;14.67;3.37;;;14.00;54.80;;;;;;5031967;28;20109;-74
2021/03/12 11:24:05;;;;;;;13.60;3.67;;;13.90;53.90;;;;;;5028730;28;20049;-74
2021/03/12 11:26:31;;;;;;;20.23;5.60;;;13.80;53.60;;;;;;5015107;28;20040;-73
2021/03/12 11:28:57;;;;;;;19.77;5.23;;;13.60;53.90;;;;;;5009174;28;20701;-79
2021/03/12 11:31:25;;;;;;;19.33;5.30;;;13.50;54.70;;;;;;5025044;28;20128;-73
2021/03/12 11:33:51;;;;;;;19.60;4.13;;;13.40;55.20;;;;;;5014035;28;20100;-74
2021/03/12 11:36:17;;;;;;;21.67;7.40;;;13.10;55.40;;;;;;4994713;28;20034;-73
2021/03/12 11:38:43;;;;;;;24.90;6.83;;;12.90;56.60;;;;;;5015388;28;20056;-73
2021/03/12 11:41:09;;;;;;;17.07;2.50;;;12.90;56.90;;;;;;4998727;28;20099;-72
2021/03/12 11:43:34;;;;;;;15.47;2.97;;;12.70;56.40;;;;;;5016380;28;20466;-72
2021/03/12 11:46:00;;;;;;;23.27;4.63;;;12.50;57.20;;;;;;4998714;28;20022;-80
2021/03/12 11:48:25;;;;;;;20.20;5.17;;;12.30;58.00;;;;;;5024316;28;20037;-73
2021/03/12 11:50:52;;;;;;;14.37;3.40;;;12.30;58.60;;;;;;5014634;28;20029;-73
2021/03/12 11:53:18;;;;;;;19.83;4.23;;;12.10;58.50;;;;;;5031942;28;20071;-72
2021/03/12 11:55:43;;;;;;;17.17;3.97;;;12.10;59.50;;;;;;5014123;28;20053;-72
2021/03/12 11:58:09;;;;;;;23.00;7.23;;;12.10;59.10;;;;;;4998280;28;20068;-72
2021/03/12 12:00:35;;;;;;;15.87;4.73;;;12.20;59.80;;;;;;5032636;28;20041;-73
2021/03/12 12:03:01;;;;;;;17.17;3.77;;;12.30;59.70;;;;;;5031570;28;20135;-80
2021/03/12 12:05:28;;;;;;;18.20;3.87;;;12.50;58.70;;;;;;5013565;28;20039;-74
2021/03/12 12:07:53;;;;;;;18.20;4.03;;;12.70;58.10;;;;;;5008489;28;20041;-73
2021/03/12 12:10:20;;;;;;;18.73;4.37;;;12.70;58.00;;;;;;5014132;28;20053;-74
2021/03/12 12:12:47;;;;;;;13.57;2.97;;;12.80;57.70;;;;;;5006060;28;20033;-74
2021/03/12 12:15:17;;;;;;;21.83;3.90;;;12.90;57.40;;;;;;4996311;28;20036;-76
2021/03/12 12:17:46;;;;;;;16.37;5.07;;;12.80;57.30;;;;;;5027810;28;20038;-74
2021/03/12 12:20:14;;;;;;;15.50;3.77;;;12.80;57.70;;;;;;4989131;28;20041;-76
2021/03/12 12:22:41;;;;;;;16.23;3.37;;;12.60;59.60;;;;;;5032811;28;20059;-75
2021/03/12 12:25:08;;;;;;;16.33;3.47;;;12.20;61.70;;;;;;5007603;28;20038;-74
2021/03/12 12:27:34;;;;;;;18.43;2.90;;;11.80;64.60;;;;;;5014719;28;20025;-78
2021/03/12 12:29:59;;;;;;;17.03;3.00;;;11.60;65.30;;;;;;5013744;28;20366;-73
2021/03/12 12:32:25;;;;;;;13.07;2.80;;;11.40;65.90;;;;;;4998322;28;20781;-74
2021/03/12 12:34:51;;;;;;;15.17;2.87;;;11.40;66.50;;;;;;5033390;28;20382;-73
2021/03/12 12:37:16;;;;;;;16.03;3.30;;;11.40;66.80;;;;;;4997543;28;20065;-75
2021/03/12 12:39:42;;;;;;;15.80;4.97;;;11.60;67.00;;;;;;5014702;28;20051;-74
2021/03/12 12:42:08;;;;;;;16.07;3.57;;;11.80;66.90;;;;;;5014058;28;20036;-74
2021/03/12 12:44:33;;;;;;;17.60;3.17;;;12.00;65.70;;;;;;5013705;28;20363;-74
2021/03/12 12:46:59;;;;;;;15.67;4.13;;;12.00;65.20;;;;;;5024627;28;20478;-75
2021/03/12 12:49:24;;;;;;;14.83;2.37;;;11.90;64.60;;;;;;5003026;28;20215;-73
2021/03/12 12:51:51;;;;;;;19.07;3.93;;;11.70;64.20;;;;;;5032425;28;20049;-74
2021/03/12 12:54:16;;;;;;;16.60;4.47;;;11.60;65.10;;;;;;5013822;28;20041;-74